• This site uses cookies. By continuing to use this site, you are agreeing to our use of cookies. Leggi altro.

Qualcuno che mi puó aiutare con l’ATIS?

#1
ATIS:
LIRF_TWR LIRF ARR/DEP ATIS X 1259Z EXP ILS APP ARR RWY 16L ARR RWY 16R DEP RWY 25 TA 6000 / TRL 70 METAR LIRF 301250Z 24009KT 210V280 9999 SCT035 26/19 Q1014 NOSIG

Non riesco a capire quali sono le piste di atterraggio, se la 16L o 16 R.
qualcuno mi puó leggere questo atis in modo che impari a capirlo? Grazie
 

francy25

Embraer 195 Rated
#2
Dice Expect Approach arrival runway 16L e 16R e departure runway 25.

Quindi le 16 per gli arrivi e la 25 per i decolli

Inviato dal mio GM1913 utilizzando Tapatalk
 

Nimic

Membro Senior
#3
ATIS:
LIRF_TWR LIRF ARR/DEP ATIS X 1259Z EXP ILS APP ARR RWY 16L ARR RWY 16R DEP RWY 25 TA 6000 / TRL 70 METAR LIRF 301250Z 24009KT 210V280 9999 SCT035 26/19 Q1014 NOSIG

Non riesco a capire quali sono le piste di atterraggio, se la 16L o 16 R.
qualcuno mi puó leggere questo atis in modo che impari a capirlo? Grazie
In pratica dice:

LIRF TWR, ATIS delle 12.59 orario zulu, expect approach ILS per le piste 16L e 16R. Partenze dalla pista 25. Transition altitude a 6000 piedi, transition level a FL70. Metar a LIRF delle 12.50 zulu del 30 settembre: vento da 240 gradi a 9 nodi, visibilità oltre i 10 km, nubi sparse a 3500 piedi, QNH 1014, nessun cambiamento significativo nelle successive due ore a partire dall’orario di emissione del Metar.
 
Ultima modifica: